sensor_id;sensor_type;location;lat;lon;timestamp;pressure;altitude;pressure_sealevel;temperature;humidity
1726;BME280;41776;48.260;8.928;2022-11-21T00:00:41;52656.28;;;-145.69;100.00
1726;BME280;41776;48.260;8.928;2022-11-21T00:03:11;52680.06;;;-145.69;100.00
1726;BME280;41776;48.260;8.928;2022-11-21T00:05:40;52650.34;;;-145.69;100.00
1726;BME280;41776;48.260;8.928;2022-11-21T00:08:11;52682.03;;;-145.69;100.00
1726;BME280;41776;48.260;8.928;2022-11-21T00:10:39;52670.16;;;-145.69;100.00
1726;BME280;41776;48.260;8.928;2022-11-21T00:13:14;52648.38;;;-145.69;100.00
1726;BME280;41776;48.260;8.928;2022-11-21T00:15:41;52664.22;;;-145.69;100.00
1726;BME280;41776;48.260;8.928;2022-11-21T00:18:08;52678.09;;;-145.69;100.00
1726;BME280;41776;48.260;8.928;2022-11-21T00:20:36;52686.00;;;-145.69;100.00
1726;BME280;41776;48.260;8.928;2022-11-21T00:23:05;52684.03;;;-145.69;100.00
1726;BME280;41776;48.260;8.928;2022-11-21T00:25:33;52703.81;;;-145.69;100.00
1726;BME280;41776;48.260;8.928;2022-11-21T00:27:59;52658.28;;;-145.69;100.00
1726;BME280;41776;48.260;8.928;2022-11-21T00:30:27;52684.03;;;-145.69;100.00
1726;BME280;41776;48.260;8.928;2022-11-21T00:32:54;52634.50;;;-145.69;100.00
1726;BME280;41776;48.260;8.928;2022-11-21T00:35:20;52650.34;;;-145.69;100.00
1726;BME280;41776;48.260;8.928;2022-11-21T00:37:52;52662.22;;;-145.69;100.00
1726;BME280;41776;48.260;8.928;2022-11-21T00:40:18;52612.72;;;-145.69;100.00
1726;BME280;41776;48.260;8.928;2022-11-21T00:42:45;52658.28;;;-145.69;100.00
1726;BME280;41776;48.260;8.928;2022-11-21T00:45:17;52642.44;;;-145.69;100.00
1726;BME280;41776;48.260;8.928;2022-11-21T00:47:47;52664.22;;;-145.69;100.00
1726;BME280;41776;48.260;8.928;2022-11-21T00:50:14;52642.44;;;-145.69;100.00
1726;BME280;41776;48.260;8.928;2022-11-21T00:52:40;52614.72;;;-145.69;100.00
1726;BME280;41776;48.260;8.928;2022-11-21T00:55:07;52672.13;;;-145.69;100.00
1726;BME280;41776;48.260;8.928;2022-11-21T00:57:34;52682.03;;;-145.69;100.00
1726;BME280;41776;48.260;8.928;2022-11-21T01:00:01;52644.41;;;-145.69;100.00
1726;BME280;41776;48.260;8.928;2022-11-21T01:02:27;52652.34;;;-145.69;100.00
1726;BME280;41776;48.260;8.928;2022-11-21T01:04:55;52622.63;;;-145.69;100.00
1726;BME280;41776;48.260;8.928;2022-11-21T01:07:22;52680.06;;;-145.69;100.00
1726;BME280;41776;48.260;8.928;2022-11-21T01:09:48;52626.59;;;-145.69;100.00
1726;BME280;41776;48.260;8.928;2022-11-21T01:12:15;52640.44;;;-145.69;100.00
1726;BME280;41776;48.260;8.928;2022-11-21T01:14:44;52680.06;;;-145.69;100.00
1726;BME280;41776;48.260;8.928;2022-11-21T01:17:11;52664.22;;;-145.69;100.00
1726;BME280;41776;48.260;8.928;2022-11-21T01:19:37;52660.25;;;-145.69;100.00
1726;BME280;41776;48.260;8.928;2022-11-21T01:22:05;52682.03;;;-145.69;100.00
1726;BME280;41776;48.260;8.928;2022-11-21T01:24:32;52674.13;;;-145.69;100.00
1726;BME280;41776;48.260;8.928;2022-11-21T01:27:03;52644.41;;;-145.69;100.00
1726;BME280;41776;48.260;8.928;2022-11-21T01:29:30;52654.31;;;-145.69;100.00
1726;BME280;41776;48.260;8.928;2022-11-21T01:31:59;52658.28;;;-145.69;100.00
1726;BME280;41776;48.260;8.928;2022-11-21T01:34:26;52686.00;;;-145.69;100.00
1726;BME280;41776;48.260;8.928;2022-11-21T01:36:52;52654.31;;;-145.69;100.00
1726;BME280;41776;48.260;8.928;2022-11-21T01:39:20;52668.19;;;-145.69;100.00
1726;BME280;41776;48.260;8.928;2022-11-21T01:41:47;52680.06;;;-145.69;100.00
1726;BME280;41776;48.260;8.928;2022-11-21T01:44:21;52648.38;;;-145.69;100.00
1726;BME280;41776;48.260;8.928;2022-11-21T01:46:49;52674.13;;;-145.69;100.00
1726;BME280;41776;48.260;8.928;2022-11-21T01:49:22;52695.91;;;-145.69;100.00
1726;BME280;41776;48.260;8.928;2022-11-21T01:51:53;52634.50;;;-145.69;100.00
1726;BME280;41776;48.260;8.928;2022-11-21T01:54:25;52654.31;;;-145.69;100.00
1726;BME280;41776;48.260;8.928;2022-11-21T01:56:59;52628.56;;;-145.69;100.00
1726;BME280;41776;48.260;8.928;2022-11-21T01:59:30;52650.34;;;-145.69;100.00
1726;BME280;41776;48.260;8.928;2022-11-21T02:02:02;52664.22;;;-145.69;100.00
1726;BME280;41776;48.260;8.928;2022-11-21T02:04:33;52676.09;;;-145.69;100.00
1726;BME280;41776;48.260;8.928;2022-11-21T02:07:04;52656.28;;;-145.69;100.00
1726;BME280;41776;48.260;8.928;2022-11-21T02:09:35;52666.19;;;-145.69;100.00
1726;BME280;41776;48.260;8.928;2022-11-21T02:12:06;52638.47;;;-145.69;100.00
1726;BME280;41776;48.260;8.928;2022-11-21T02:14:34;52699.88;;;-145.69;100.00
1726;BME280;41776;48.260;8.928;2022-11-21T02:17:05;52682.03;;;-145.69;100.00
1726;BME280;41776;48.260;8.928;2022-11-21T02:19:40;52652.34;;;-145.69;100.00
1726;BME280;41776;48.260;8.928;2022-11-21T02:22:11;52654.31;;;-145.69;100.00
1726;BME280;41776;48.260;8.928;2022-11-21T02:24:45;52682.03;;;-145.69;100.00
1726;BME280;41776;48.260;8.928;2022-11-21T02:27:16;52705.81;;;-145.69;100.00
1726;BME280;41776;48.260;8.928;2022-11-21T02:29:42;52680.06;;;-145.69;100.00
1726;BME280;41776;48.260;8.928;2022-11-21T02:32:19;52652.34;;;-145.69;100.00
1726;BME280;41776;48.260;8.928;2022-11-21T02:34:49;52687.97;;;-145.69;100.00
1726;BME280;41776;48.260;8.928;2022-11-21T02:37:16;52656.28;;;-145.69;100.00
1726;BME280;41776;48.260;8.928;2022-11-21T02:39:45;52691.94;;;-145.69;100.00
1726;BME280;41776;48.260;8.928;2022-11-21T02:42:18;52668.19;;;-145.69;100.00
1726;BME280;41776;48.260;8.928;2022-11-21T02:44:51;52686.00;;;-145.69;100.00
1726;BME280;41776;48.260;8.928;2022-11-21T02:47:21;52662.22;;;-145.69;100.00
1726;BME280;41776;48.260;8.928;2022-11-21T02:49:54;52682.03;;;-145.69;100.00
1726;BME280;41776;48.260;8.928;2022-11-21T02:52:21;52658.28;;;-145.69;100.00
1726;BME280;41776;48.260;8.928;2022-11-21T02:54:48;52670.16;;;-145.69;100.00
1726;BME280;41776;48.260;8.928;2022-11-21T02:57:14;52670.16;;;-145.69;100.00
1726;BME280;41776;48.260;8.928;2022-11-21T02:59:42;52701.84;;;-145.69;100.00
1726;BME280;41776;48.260;8.928;2022-11-21T03:02:09;52693.94;;;-145.69;100.00
1726;BME280;41776;48.260;8.928;2022-11-21T03:04:35;52674.13;;;-145.69;100.00
1726;BME280;41776;48.260;8.928;2022-11-21T03:07:02;52707.78;;;-145.69;100.00
1726;BME280;41776;48.260;8.928;2022-11-21T03:09:28;52678.09;;;-145.69;100.00
1726;BME280;41776;48.260;8.928;2022-11-21T03:11:55;52686.00;;;-145.69;100.00
1726;BME280;41776;48.260;8.928;2022-11-21T03:14:21;52697.88;;;-145.69;100.00
1726;BME280;41776;48.260;8.928;2022-11-21T03:16:49;52686.00;;;-145.69;100.00
1726;BME280;41776;48.260;8.928;2022-11-21T03:19:16;52662.22;;;-145.69;100.00
1726;BME280;41776;48.260;8.928;2022-11-21T03:21:42;52674.13;;;-145.69;100.00
1726;BME280;41776;48.260;8.928;2022-11-21T03:24:09;52674.13;;;-145.69;100.00
1726;BME280;41776;48.260;8.928;2022-11-21T03:26:35;52686.00;;;-145.69;100.00
1726;BME280;41776;48.260;8.928;2022-11-21T03:29:02;52668.19;;;-145.69;100.00
1726;BME280;41776;48.260;8.928;2022-11-21T03:31:28;52721.66;;;-145.69;100.00
1726;BME280;41776;48.260;8.928;2022-11-21T03:33:56;52656.28;;;-145.69;100.00
1726;BME280;41776;48.260;8.928;2022-11-21T03:36:22;52674.13;;;-145.69;100.00
1726;BME280;41776;48.260;8.928;2022-11-21T03:38:49;52693.94;;;-145.69;100.00
1726;BME280;41776;48.260;8.928;2022-11-21T03:41:15;52670.16;;;-145.69;100.00
1726;BME280;41776;48.260;8.928;2022-11-21T03:43:58;52693.94;;;-145.69;100.00
1726;BME280;41776;48.260;8.928;2022-11-21T03:46:25;52672.13;;;-145.69;100.00
1726;BME280;41776;48.260;8.928;2022-11-21T03:48:52;52697.88;;;-145.69;100.00
1726;BME280;41776;48.260;8.928;2022-11-21T03:51:20;52743.44;;;-145.69;100.00
1726;BME280;41776;48.260;8.928;2022-11-21T03:53:47;52682.03;;;-145.69;100.00
1726;BME280;41776;48.260;8.928;2022-11-21T03:56:14;52693.94;;;-145.69;100.00
1726;BME280;41776;48.260;8.928;2022-11-21T03:58:40;52693.94;;;-145.69;100.00
1726;BME280;41776;48.260;8.928;2022-11-21T04:01:07;52691.94;;;-145.69;100.00
1726;BME280;41776;48.260;8.928;2022-11-21T04:03:34;52684.03;;;-145.69;100.00
1726;BME280;41776;48.260;8.928;2022-11-21T04:06:01;52664.22;;;-145.69;100.00
1726;BME280;41776;48.260;8.928;2022-11-21T04:08:29;52687.97;;;-145.69;100.00
1726;BME280;41776;48.260;8.928;2022-11-21T04:10:55;52680.06;;;-145.69;100.00
1726;BME280;41776;48.260;8.928;2022-11-21T04:13:22;52693.94;;;-145.69;100.00
1726;BME280;41776;48.260;8.928;2022-11-21T04:15:49;52693.94;;;-145.69;100.00
1726;BME280;41776;48.260;8.928;2022-11-21T04:18:16;52705.81;;;-145.69;100.00
1726;BME280;41776;48.260;8.928;2022-11-21T04:20:43;52699.88;;;-145.69;100.00
1726;BME280;41776;48.260;8.928;2022-11-21T04:23:10;52695.91;;;-145.69;100.00
1726;BME280;41776;48.260;8.928;2022-11-21T04:25:38;52693.94;;;-145.69;100.00
1726;BME280;41776;48.260;8.928;2022-11-21T04:28:05;52705.81;;;-145.69;100.00
1726;BME280;41776;48.260;8.928;2022-11-21T04:30:32;52626.59;;;-145.69;100.00
1726;BME280;41776;48.260;8.928;2022-11-21T04:32:59;52686.00;;;-145.69;100.00
1726;BME280;41776;48.260;8.928;2022-11-21T04:35:26;52691.94;;;-145.69;100.00
1726;BME280;41776;48.260;8.928;2022-11-21T04:37:52;52670.16;;;-145.69;100.00
1726;BME280;41776;48.260;8.928;2022-11-21T04:40:19;52672.13;;;-145.69;100.00
1726;BME280;41776;48.260;8.928;2022-11-21T04:42:47;52687.97;;;-145.69;100.00
1726;BME280;41776;48.260;8.928;2022-11-21T04:45:14;52693.94;;;-145.69;100.00
1726;BME280;41776;48.260;8.928;2022-11-21T04:47:43;52691.94;;;-145.69;100.00
1726;BME280;41776;48.260;8.928;2022-11-21T04:50:14;52644.41;;;-145.69;100.00
1726;BME280;41776;48.260;8.928;2022-11-21T04:52:41;52680.06;;;-145.69;100.00
1726;BME280;41776;48.260;8.928;2022-11-21T04:55:08;52701.84;;;-145.69;100.00
1726;BME280;41776;48.260;8.928;2022-11-21T04:57:34;52709.78;;;-145.69;100.00
1726;BME280;41776;48.260;8.928;2022-11-21T05:00:03;52701.84;;;-145.69;100.00
1726;BME280;41776;48.260;8.928;2022-11-21T05:02:31;52670.16;;;-145.69;100.00
1726;BME280;41776;48.260;8.928;2022-11-21T05:04:57;52711.75;;;-145.69;100.00
1726;BME280;41776;48.260;8.928;2022-11-21T05:07:24;52691.94;;;-145.69;100.00
1726;BME280;41776;48.260;8.928;2022-11-21T05:09:51;52686.00;;;-145.69;100.00
1726;BME280;41776;48.260;8.928;2022-11-21T05:12:17;52693.94;;;-145.69;100.00
1726;BME280;41776;48.260;8.928;2022-11-21T05:15:03;52697.88;;;-145.69;100.00
1726;BME280;41776;48.260;8.928;2022-11-21T05:17:30;52707.78;;;-145.69;100.00
1726;BME280;41776;48.260;8.928;2022-11-21T05:19:56;52707.78;;;-145.69;100.00
1726;BME280;41776;48.260;8.928;2022-11-21T05:22:22;52745.41;;;-145.69;100.00
1726;BME280;41776;48.260;8.928;2022-11-21T05:24:49;52721.66;;;-145.69;100.00
1726;BME280;41776;48.260;8.928;2022-11-21T05:27:16;52709.78;;;-145.69;100.00
1726;BME280;41776;48.260;8.928;2022-11-21T05:29:42;52693.94;;;-145.69;100.00
1726;BME280;41776;48.260;8.928;2022-11-21T05:32:10;52727.59;;;-145.69;100.00
1726;BME280;41776;48.260;8.928;2022-11-21T05:34:37;52695.91;;;-145.69;100.00
1726;BME280;41776;48.260;8.928;2022-11-21T05:37:04;52693.94;;;-145.69;100.00
1726;BME280;41776;48.260;8.928;2022-11-21T05:39:30;52668.19;;;-145.69;100.00
1726;BME280;41776;48.260;8.928;2022-11-21T05:41:57;52678.09;;;-145.69;100.00
1726;BME280;41776;48.260;8.928;2022-11-21T05:44:23;52725.63;;;-145.69;100.00
1726;BME280;41776;48.260;8.928;2022-11-21T05:46:49;52695.91;;;-145.69;100.00
1726;BME280;41776;48.260;8.928;2022-11-21T05:49:17;52682.03;;;-145.69;100.00
1726;BME280;41776;48.260;8.928;2022-11-21T05:51:43;52697.88;;;-145.69;100.00
1726;BME280;41776;48.260;8.928;2022-11-21T05:54:11;52687.97;;;-145.69;100.00
1726;BME280;41776;48.260;8.928;2022-11-21T05:56:38;52701.84;;;-145.69;100.00
1726;BME280;41776;48.260;8.928;2022-11-21T05:59:04;52678.09;;;-145.69;100.00
1726;BME280;41776;48.260;8.928;2022-11-21T06:01:31;52707.78;;;-145.69;100.00
1726;BME280;41776;48.260;8.928;2022-11-21T06:04:16;52682.03;;;-145.69;100.00
1726;BME280;41776;48.260;8.928;2022-11-21T06:06:43;52664.22;;;-145.69;100.00
1726;BME280;41776;48.260;8.928;2022-11-21T06:09:10;52709.78;;;-145.69;100.00
1726;BME280;41776;48.260;8.928;2022-11-21T06:11:36;52674.13;;;-145.69;100.00
1726;BME280;41776;48.260;8.928;2022-11-21T06:14:03;52697.88;;;-145.69;100.00
1726;BME280;41776;48.260;8.928;2022-11-21T06:16:29;52674.13;;;-145.69;100.00
1726;BME280;41776;48.260;8.928;2022-11-21T06:18:56;52711.75;;;-145.69;100.00
1726;BME280;41776;48.260;8.928;2022-11-21T06:21:25;52701.84;;;-145.69;100.00
1726;BME280;41776;48.260;8.928;2022-11-21T06:23:53;52682.03;;;-145.69;100.00
1726;BME280;41776;48.260;8.928;2022-11-21T06:26:21;52686.00;;;-145.69;100.00
1726;BME280;41776;48.260;8.928;2022-11-21T06:28:49;52654.31;;;-145.69;100.00
1726;BME280;41776;48.260;8.928;2022-11-21T06:31:17;52693.94;;;-145.69;100.00
1726;BME280;41776;48.260;8.928;2022-11-21T06:33:45;52713.72;;;-145.69;100.00
1726;BME280;41776;48.260;8.928;2022-11-21T06:36:13;52711.75;;;-145.69;100.00
1726;BME280;41776;48.260;8.928;2022-11-21T06:38:42;52682.03;;;-145.69;100.00
1726;BME280;41776;48.260;8.928;2022-11-21T06:41:10;52682.03;;;-145.69;100.00
1726;BME280;41776;48.260;8.928;2022-11-21T06:43:37;52672.13;;;-145.69;100.00
1726;BME280;41776;48.260;8.928;2022-11-21T06:46:04;52693.94;;;-145.69;100.00
1726;BME280;41776;48.260;8.928;2022-11-21T06:48:31;52689.97;;;-145.69;100.00
1726;BME280;41776;48.260;8.928;2022-11-21T06:51:02;52693.94;;;-145.69;100.00
1726;BME280;41776;48.260;8.928;2022-11-21T06:53:29;52705.81;;;-145.69;100.00
1726;BME280;41776;48.260;8.928;2022-11-21T06:55:58;52682.03;;;-145.69;100.00
1726;BME280;41776;48.260;8.928;2022-11-21T06:58:25;52680.06;;;-145.69;100.00
1726;BME280;41776;48.260;8.928;2022-11-21T07:00:52;52680.06;;;-145.69;100.00
1726;BME280;41776;48.260;8.928;2022-11-21T07:03:18;52703.81;;;-145.69;100.00
1726;BME280;41776;48.260;8.928;2022-11-21T07:05:45;52684.03;;;-145.69;100.00
1726;BME280;41776;48.260;8.928;2022-11-21T07:08:11;52699.88;;;-145.69;100.00
1726;BME280;41776;48.260;8.928;2022-11-21T07:10:38;52638.47;;;-145.69;100.00
1726;BME280;41776;48.260;8.928;2022-11-21T07:13:06;52693.94;;;-145.69;100.00
1726;BME280;41776;48.260;8.928;2022-11-21T07:15:50;52686.00;;;-145.69;100.00
1726;BME280;41776;48.260;8.928;2022-11-21T07:18:17;52650.34;;;-145.69;100.00
1726;BME280;41776;48.260;8.928;2022-11-21T07:20:44;52719.66;;;-145.69;100.00
1726;BME280;41776;48.260;8.928;2022-11-21T07:23:11;52697.88;;;-145.69;100.00
1726;BME280;41776;48.260;8.928;2022-11-21T07:25:38;52672.13;;;-145.69;100.00
1726;BME280;41776;48.260;8.928;2022-11-21T07:28:07;52697.88;;;-145.69;100.00
1726;BME280;41776;48.260;8.928;2022-11-21T07:30:34;52695.91;;;-145.69;100.00
1726;BME280;41776;48.260;8.928;2022-11-21T07:33:02;52715.72;;;-145.69;100.00
1726;BME280;41776;48.260;8.928;2022-11-21T07:35:30;52680.06;;;-145.69;100.00
1726;BME280;41776;48.260;8.928;2022-11-21T07:37:56;52703.81;;;-145.69;100.00
1726;BME280;41776;48.260;8.928;2022-11-21T07:40:23;52674.13;;;-145.69;100.00
1726;BME280;41776;48.260;8.928;2022-11-21T07:42:50;52713.72;;;-145.69;100.00
1726;BME280;41776;48.260;8.928;2022-11-21T07:45:18;52687.97;;;-145.69;100.00
1726;BME280;41776;48.260;8.928;2022-11-21T07:47:44;52678.09;;;-145.69;100.00
1726;BME280;41776;48.260;8.928;2022-11-21T07:50:11;52660.25;;;-145.69;100.00
1726;BME280;41776;48.260;8.928;2022-11-21T07:52:38;52648.38;;;-145.69;100.00
1726;BME280;41776;48.260;8.928;2022-11-21T07:55:05;52666.19;;;-145.69;100.00
1726;BME280;41776;48.260;8.928;2022-11-21T07:57:32;52654.31;;;-145.69;100.00
1726;BME280;41776;48.260;8.928;2022-11-21T07:59:58;52680.06;;;-145.69;100.00
1726;BME280;41776;48.260;8.928;2022-11-21T08:02:27;52660.25;;;-145.69;100.00
1726;BME280;41776;48.260;8.928;2022-11-21T08:04:54;52682.03;;;-145.69;100.00
1726;BME280;41776;48.260;8.928;2022-11-21T08:07:21;52666.19;;;-145.69;100.00
1726;BME280;41776;48.260;8.928;2022-11-21T08:09:48;52684.03;;;-145.69;100.00
1726;BME280;41776;48.260;8.928;2022-11-21T08:12:15;52674.13;;;-145.69;100.00
1726;BME280;41776;48.260;8.928;2022-11-21T08:14:42;52686.00;;;-145.69;100.00
1726;BME280;41776;48.260;8.928;2022-11-21T08:17:08;52703.81;;;-145.69;100.00
1726;BME280;41776;48.260;8.928;2022-11-21T08:19:36;52691.94;;;-145.69;100.00
1726;BME280;41776;48.260;8.928;2022-11-21T08:22:02;52666.19;;;-145.69;100.00
1726;BME280;41776;48.260;8.928;2022-11-21T08:24:29;52705.81;;;-145.69;100.00
1726;BME280;41776;48.260;8.928;2022-11-21T08:26:58;52666.19;;;-145.69;100.00
1726;BME280;41776;48.260;8.928;2022-11-21T08:29:25;52662.22;;;-145.69;100.00
1726;BME280;41776;48.260;8.928;2022-11-21T08:31:52;52658.28;;;-145.69;100.00
1726;BME280;41776;48.260;8.928;2022-11-21T08:34:18;52668.19;;;-145.69;100.00
1726;BME280;41776;48.260;8.928;2022-11-21T08:36:46;52666.19;;;-145.69;100.00
1726;BME280;41776;48.260;8.928;2022-11-21T08:39:12;52650.34;;;-145.69;100.00
1726;BME280;41776;48.260;8.928;2022-11-21T08:41:39;52624.59;;;-145.69;100.00
1726;BME280;41776;48.260;8.928;2022-11-21T08:44:23;52674.13;;;-145.69;100.00
1726;BME280;41776;48.260;8.928;2022-11-21T08:46:50;52670.16;;;-145.69;100.00
1726;BME280;41776;48.260;8.928;2022-11-21T08:49:16;52658.28;;;-145.69;100.00
1726;BME280;41776;48.260;8.928;2022-11-21T08:51:42;52648.38;;;-145.69;100.00
1726;BME280;41776;48.260;8.928;2022-11-21T08:54:11;52670.16;;;-145.69;100.00
1726;BME280;41776;48.260;8.928;2022-11-21T08:56:37;52680.06;;;-145.69;100.00
1726;BME280;41776;48.260;8.928;2022-11-21T08:59:04;52634.50;;;-145.69;100.00
1726;BME280;41776;48.260;8.928;2022-11-21T09:01:30;52686.00;;;-145.69;100.00
1726;BME280;41776;48.260;8.928;2022-11-21T09:03:57;52670.16;;;-145.69;100.00
1726;BME280;41776;48.260;8.928;2022-11-21T09:06:23;52676.09;;;-145.69;100.00
1726;BME280;41776;48.260;8.928;2022-11-21T09:08:50;52662.22;;;-145.69;100.00
1726;BME280;41776;48.260;8.928;2022-11-21T09:11:18;52652.34;;;-145.69;100.00
1726;BME280;41776;48.260;8.928;2022-11-21T09:13:49;52662.22;;;-145.69;100.00
1726;BME280;41776;48.260;8.928;2022-11-21T09:16:30;52652.34;;;-145.69;100.00
1726;BME280;41776;48.260;8.928;2022-11-21T09:19:14;52636.50;;;-145.69;100.00
1726;BME280;41776;48.260;8.928;2022-11-21T09:21:40;52658.28;;;-145.69;100.00
1726;BME280;41776;48.260;8.928;2022-11-21T09:24:07;52662.22;;;-145.69;100.00
1726;BME280;41776;48.260;8.928;2022-11-21T09:26:35;52662.22;;;-145.69;100.00
1726;BME280;41776;48.260;8.928;2022-11-21T09:29:01;52664.22;;;-145.69;100.00
1726;BME280;41776;48.260;8.928;2022-11-21T09:31:28;52705.81;;;-145.69;100.00
1726;BME280;41776;48.260;8.928;2022-11-21T09:33:55;52644.41;;;-145.69;100.00
1726;BME280;41776;48.260;8.928;2022-11-21T09:36:21;52640.44;;;-145.69;100.00
1726;BME280;41776;48.260;8.928;2022-11-21T09:38:50;52636.50;;;-145.69;100.00
1726;BME280;41776;48.260;8.928;2022-11-21T09:41:25;52674.13;;;-145.69;100.00
1726;BME280;41776;48.260;8.928;2022-11-21T09:44:19;52662.22;;;-145.69;100.00
1726;BME280;41776;48.260;8.928;2022-11-21T09:46:48;52660.25;;;-145.69;100.00
1726;BME280;41776;48.260;8.928;2022-11-21T09:49:21;52654.31;;;-145.69;100.00
1726;BME280;41776;48.260;8.928;2022-11-21T09:51:49;52618.66;;;-145.69;100.00
1726;BME280;41776;48.260;8.928;2022-11-21T09:54:20;52632.53;;;-145.69;100.00
1726;BME280;41776;48.260;8.928;2022-11-21T09:56:50;52646.41;;;-145.69;100.00
1726;BME280;41776;48.260;8.928;2022-11-21T09:59:28;52638.47;;;-145.69;100.00
1726;BME280;41776;48.260;8.928;2022-11-21T10:01:57;52670.16;;;-145.69;100.00
1726;BME280;41776;48.260;8.928;2022-11-21T10:04:24;52646.41;;;-145.69;100.00
1726;BME280;41776;48.260;8.928;2022-11-21T10:06:59;52630.53;;;-145.69;100.00
1726;BME280;41776;48.260;8.928;2022-11-21T10:09:41;52672.13;;;-145.69;100.00
1726;BME280;41776;48.260;8.928;2022-11-21T10:12:18;52646.41;;;-145.69;100.00
1726;BME280;41776;48.260;8.928;2022-11-21T10:15:21;52658.28;;;-145.69;100.00
1726;BME280;41776;48.260;8.928;2022-11-21T10:18:00;52626.59;;;-145.69;100.00
1726;BME280;41776;48.260;8.928;2022-11-21T10:20:38;52626.59;;;-145.69;100.00
1726;BME280;41776;48.260;8.928;2022-11-21T10:23:35;52642.44;;;-145.69;100.00
1726;BME280;41776;48.260;8.928;2022-11-21T10:26:13;52616.69;;;-145.69;100.00
1726;BME280;41776;48.260;8.928;2022-11-21T10:28:45;52636.50;;;-145.69;100.00
1726;BME280;41776;48.260;8.928;2022-11-21T10:31:17;52624.59;;;-145.69;100.00
1726;BME280;41776;48.260;8.928;2022-11-21T10:33:44;52630.53;;;-145.69;100.00
1726;BME280;41776;48.260;8.928;2022-11-21T10:36:17;52670.16;;;-145.69;100.00
1726;BME280;41776;48.260;8.928;2022-11-21T10:38:49;52678.09;;;-145.69;100.00
1726;BME280;41776;48.260;8.928;2022-11-21T10:41:17;52660.25;;;-145.69;100.00
1726;BME280;41776;48.260;8.928;2022-11-21T10:43:50;52654.31;;;-145.69;100.00
1726;BME280;41776;48.260;8.928;2022-11-21T10:46:53;52658.28;;;-145.69;100.00
1726;BME280;41776;48.260;8.928;2022-11-21T10:49:20;52638.47;;;-145.69;100.00
1726;BME280;41776;48.260;8.928;2022-11-21T10:51:50;52640.44;;;-145.69;100.00
1726;BME280;41776;48.260;8.928;2022-11-21T10:54:18;52624.59;;;-145.69;100.00
1726;BME280;41776;48.260;8.928;2022-11-21T10:57:05;52638.47;;;-145.69;100.00
1726;BME280;41776;48.260;8.928;2022-11-21T10:59:34;52610.75;;;-145.69;100.00
1726;BME280;41776;48.260;8.928;2022-11-21T11:02:21;52638.47;;;-145.69;100.00
1726;BME280;41776;48.260;8.928;2022-11-21T11:04:48;52646.41;;;-145.69;100.00
1726;BME280;41776;48.260;8.928;2022-11-21T11:07:23;52630.53;;;-145.69;100.00
1726;BME280;41776;48.260;8.928;2022-11-21T11:09:51;52634.50;;;-145.69;100.00
1726;BME280;41776;48.260;8.928;2022-11-21T11:12:26;52644.41;;;-145.69;100.00
1726;BME280;41776;48.260;8.928;2022-11-21T11:15:16;52654.31;;;-145.69;100.00
1726;BME280;41776;48.260;8.928;2022-11-21T11:17:48;52638.47;;;-145.69;100.00
1726;BME280;41776;48.260;8.928;2022-11-21T11:20:30;52612.72;;;-145.69;100.00
1726;BME280;41776;48.260;8.928;2022-11-21T11:22:57;52638.47;;;-145.69;100.00
1726;BME280;41776;48.260;8.928;2022-11-21T11:25:24;52630.53;;;-145.69;100.00
1726;BME280;41776;48.260;8.928;2022-11-21T11:27:51;52596.88;;;-145.69;100.00
1726;BME280;41776;48.260;8.928;2022-11-21T11:30:18;52656.28;;;-145.69;100.00
1726;BME280;41776;48.260;8.928;2022-11-21T11:32:46;52634.50;;;-145.69;100.00
1726;BME280;41776;48.260;8.928;2022-11-21T11:35:21;52648.38;;;-145.69;100.00
1726;BME280;41776;48.260;8.928;2022-11-21T11:37:57;52656.28;;;-145.69;100.00
1726;BME280;41776;48.260;8.928;2022-11-21T11:40:31;52632.53;;;-145.69;100.00
1726;BME280;41776;48.260;8.928;2022-11-21T11:43:19;52624.59;;;-145.69;100.00
1726;BME280;41776;48.260;8.928;2022-11-21T11:46:14;52650.34;;;-145.69;100.00
1726;BME280;41776;48.260;8.928;2022-11-21T11:49:06;52604.81;;;-145.69;100.00
1726;BME280;41776;48.260;8.928;2022-11-21T11:51:38;52642.44;;;-145.69;100.00
1726;BME280;41776;48.260;8.928;2022-11-21T11:54:10;52594.91;;;-145.69;100.00
1726;BME280;41776;48.260;8.928;2022-11-21T11:56:38;52583.00;;;-145.69;100.00
1726;BME280;41776;48.260;8.928;2022-11-21T11:59:12;52583.00;;;-145.69;100.00
1726;BME280;41776;48.260;8.928;2022-11-21T12:01:46;52606.78;;;-145.69;100.00
1726;BME280;41776;48.260;8.928;2022-11-21T12:04:18;52583.00;;;-145.69;100.00
1726;BME280;41776;48.260;8.928;2022-11-21T12:06:49;52614.72;;;-145.69;100.00
1726;BME280;41776;48.260;8.928;2022-11-21T12:09:23;52610.75;;;-145.69;100.00
1726;BME280;41776;48.260;8.928;2022-11-21T12:11:56;52592.91;;;-145.69;100.00
1726;BME280;41776;48.260;8.928;2022-11-21T12:14:59;52632.53;;;-145.69;100.00
1726;BME280;41776;48.260;8.928;2022-11-21T12:17:50;52634.50;;;-145.69;100.00
1726;BME280;41776;48.260;8.928;2022-11-21T12:20:26;52602.81;;;-145.69;100.00
1726;BME280;41776;48.260;8.928;2022-11-21T12:22:55;52620.66;;;-145.69;100.00
1726;BME280;41776;48.260;8.928;2022-11-21T12:25:26;52571.13;;;-145.69;100.00
1726;BME280;41776;48.260;8.928;2022-11-21T12:27:54;52583.00;;;-145.69;100.00
1726;BME280;41776;48.260;8.928;2022-11-21T12:30:46;52588.97;;;-145.69;100.00
1726;BME280;41776;48.260;8.928;2022-11-21T12:33:19;52602.81;;;-145.69;100.00
1726;BME280;41776;48.260;8.928;2022-11-21T12:36:13;52602.81;;;-145.69;100.00
1726;BME280;41776;48.260;8.928;2022-11-21T12:39:04;52586.97;;;-145.69;100.00
1726;BME280;41776;48.260;8.928;2022-11-21T12:41:36;52602.81;;;-145.69;100.00
1726;BME280;41776;48.260;8.928;2022-11-21T12:44:37;52640.44;;;-145.69;100.00
1726;BME280;41776;48.260;8.928;2022-11-21T12:47:17;52594.91;;;-145.69;98.03
1726;BME280;41776;48.260;8.928;2022-11-21T12:49:51;52586.97;;;-145.69;100.00
1726;BME280;41776;48.260;8.928;2022-11-21T12:52:40;52598.84;;;-145.69;100.00
1726;BME280;41776;48.260;8.928;2022-11-21T12:55:33;52610.75;;;-145.69;100.00